Time;durP1;ratioP1;P1;durP2;ratioP2;P2;SDS_P1;SDS_P2;PMS_P1;PMS_P2;Temp;Humidity;BMP_temperature;BMP_pressure;BME280_temperature;BME280_humidity;BME280_pressure;Samples;Min_cycle;Max_cycle;Signal;HPM_P1;HPM_P2
2021/10/26 00:02:01;;;;;;;31.70;15.20;;;7.60;99.90;;;;;;4990086;28;20312;-80
2021/10/26 00:04:28;;;;;;;32.63;11.93;;;7.90;99.90;;;;;;4973090;28;20287;-79
2021/10/26 00:06:55;;;;;;;57.07;12.43;;;7.90;99.90;;;;;;4971034;28;20236;-80
2021/10/26 00:09:23;;;;;;;30.87;9.50;;;7.60;99.90;;;;;;4977966;28;20736;-80
2021/10/26 00:11:52;;;;;;;31.33;8.80;;;7.30;99.90;;;;;;4990192;28;20202;-80
2021/10/26 00:14:18;;;;;;;27.33;8.60;;;7.10;99.90;;;;;;4974221;28;20714;-80
2021/10/26 00:16:45;;;;;;;24.17;8.37;;;6.80;99.90;;;;;;4970597;28;20297;-79
2021/10/26 00:19:13;;;;;;;28.87;8.20;;;6.80;99.90;;;;;;4970904;28;20298;-79
2021/10/26 00:21:40;;;;;;;21.23;8.27;;;6.70;99.90;;;;;;4970404;28;20202;-79
2021/10/26 00:24:07;;;;;;;15.17;8.23;;;6.70;99.90;;;;;;4971210;28;20294;-79
2021/10/26 00:26:34;;;;;;;15.13;7.97;;;6.60;99.90;;;;;;4969928;28;20293;-79
2021/10/26 00:29:02;;;;;;;26.33;8.60;;;6.60;99.90;;;;;;4970692;28;20245;-80
2021/10/26 00:31:30;;;;;;;15.13;7.03;;;6.60;99.90;;;;;;4970450;28;20242;-80
2021/10/26 00:33:57;;;;;;;12.40;7.47;;;6.60;99.90;;;;;;4985040;28;20205;-80
2021/10/26 00:36:24;;;;;;;14.23;7.37;;;6.70;99.90;;;;;;4989799;28;20308;-79
2021/10/26 00:38:51;;;;;;;12.77;7.90;;;6.70;99.90;;;;;;4988831;28;20205;-80
2021/10/26 00:41:18;;;;;;;11.57;7.90;;;6.80;99.90;;;;;;4989556;28;20239;-80
2021/10/26 00:43:45;;;;;;;14.73;8.50;;;6.80;99.90;;;;;;4989853;28;20642;-79
2021/10/26 00:46:14;;;;;;;10.07;7.97;;;6.80;99.90;;;;;;4989934;28;20220;-80
2021/10/26 00:48:40;;;;;;;11.53;8.33;;;7.00;99.90;;;;;;4989869;28;20288;-80
2021/10/26 00:51:09;;;;;;;13.73;8.63;;;7.00;99.90;;;;;;4988698;28;20280;-80
2021/10/26 00:53:37;;;;;;;11.70;8.27;;;7.00;99.90;;;;;;4989083;28;20209;-80
2021/10/26 00:56:04;;;;;;;12.53;8.23;;;7.10;99.90;;;;;;4989216;28;20252;-80
2021/10/26 00:58:31;;;;;;;11.40;8.00;;;7.10;99.90;;;;;;4989870;28;20292;-80
2021/10/26 01:00:58;;;;;;;13.30;8.27;;;7.10;99.90;;;;;;4989807;28;20211;-80
2021/10/26 01:03:27;;;;;;;11.40;8.73;;;7.10;99.90;;;;;;4989678;28;20222;-80
2021/10/26 01:05:54;;;;;;;11.00;8.00;;;7.20;99.90;;;;;;4989779;28;20633;-80
2021/10/26 01:08:21;;;;;;;13.23;9.10;;;7.20;99.90;;;;;;4984318;28;20244;-80
2021/10/26 01:10:51;;;;;;;11.70;8.77;;;7.20;99.90;;;;;;4989128;28;20849;-80
2021/10/26 01:13:20;;;;;;;13.83;9.30;;;7.30;99.90;;;;;;4989593;28;20205;-80
2021/10/26 01:15:47;;;;;;;12.03;8.83;;;7.40;99.90;;;;;;4989260;28;20308;-80
2021/10/26 01:18:15;;;;;;;12.27;8.90;;;7.40;99.90;;;;;;4981803;28;20264;-80
2021/10/26 01:20:43;;;;;;;12.60;8.90;;;7.50;99.90;;;;;;4969627;28;20297;-80
2021/10/26 01:23:10;;;;;;;12.77;9.23;;;7.50;99.90;;;;;;4970299;28;20304;-80
2021/10/26 01:25:37;;;;;;;15.97;9.60;;;7.50;99.90;;;;;;4969772;28;20649;-80
2021/10/26 01:28:04;;;;;;;13.93;9.70;;;7.50;99.90;;;;;;4972136;28;20204;-80
2021/10/26 01:30:34;;;;;;;13.17;9.43;;;7.60;99.90;;;;;;4973085;28;20736;-80
2021/10/26 01:33:02;;;;;;;12.70;9.17;;;7.70;99.90;;;;;;4973288;28;20205;-80
2021/10/26 01:35:29;;;;;;;13.73;8.77;;;7.80;99.90;;;;;;4956176;28;20223;-80
2021/10/26 01:37:58;;;;;;;12.70;8.30;;;7.70;99.90;;;;;;4972857;28;20212;-80
2021/10/26 01:40:26;;;;;;;17.93;9.30;;;7.90;99.90;;;;;;4984095;28;20242;-80
2021/10/26 01:42:54;;;;;;;14.80;9.60;;;8.20;99.90;;;;;;4992113;28;20205;-80
2021/10/26 01:45:21;;;;;;;17.97;9.93;;;8.40;99.90;;;;;;4992190;28;20292;-80
2021/10/26 01:47:48;;;;;;;19.33;11.07;;;8.50;99.90;;;;;;4992307;28;20631;-80
2021/10/26 01:50:18;;;;;;;18.53;9.57;;;8.60;99.90;;;;;;4992270;28;20391;-80
2021/10/26 01:52:46;;;;;;;17.87;8.90;;;8.70;99.90;;;;;;4992012;28;20202;-80
2021/10/26 01:55:15;;;;;;;18.70;9.00;;;8.90;99.90;;;;;;4992231;28;20225;-80
2021/10/26 01:57:43;;;;;;;18.20;10.47;;;9.00;99.90;;;;;;4992247;28;20684;-80
2021/10/26 02:00:12;;;;;;;16.90;10.53;;;9.00;99.90;;;;;;4992225;28;20290;-80
2021/10/26 02:02:39;;;;;;;38.83;11.03;;;9.00;99.90;;;;;;4991776;28;20259;-80
2021/10/26 02:05:07;;;;;;;23.30;10.50;;;9.00;99.90;;;;;;4972740;28;20207;-80
2021/10/26 02:07:34;;;;;;;26.80;10.77;;;9.00;99.90;;;;;;4972212;28;20212;-80
2021/10/26 02:10:02;;;;;;;27.70;10.00;;;9.00;99.90;;;;;;4972493;28;20285;-80
2021/10/26 02:12:30;;;;;;;30.40;9.03;;;9.00;99.90;;;;;;4987141;28;20198;-80
2021/10/26 02:14:57;;;;;;;14.63;8.37;;;9.00;99.90;;;;;;4992135;28;20312;-80
2021/10/26 02:17:24;;;;;;;18.43;8.70;;;9.00;99.90;;;;;;4991855;28;20663;-80
2021/10/26 02:19:51;;;;;;;12.87;8.07;;;9.00;99.90;;;;;;4992159;28;20244;-81
2021/10/26 02:22:19;;;;;;;12.73;8.63;;;8.90;99.90;;;;;;4984622;28;20301;-80
2021/10/26 02:24:46;;;;;;;13.27;7.97;;;8.90;99.90;;;;;;4972229;28;20679;-80
2021/10/26 02:27:13;;;;;;;14.00;8.53;;;8.90;99.90;;;;;;4972209;28;20286;-80
2021/10/26 02:29:42;;;;;;;15.33;8.93;;;8.80;99.90;;;;;;4972339;28;20230;-80
2021/10/26 02:32:09;;;;;;;16.67;9.20;;;8.80;99.90;;;;;;4972398;28;20292;-80
2021/10/26 02:34:36;;;;;;;14.17;9.37;;;8.80;99.90;;;;;;4972209;28;20295;-80
2021/10/26 02:37:03;;;;;;;18.17;9.93;;;8.80;99.90;;;;;;4978356;28;20775;-80
2021/10/26 02:39:30;;;;;;;19.13;10.07;;;8.80;99.90;;;;;;4989472;28;20233;-80
2021/10/26 02:41:57;;;;;;;27.60;11.50;;;8.80;99.90;;;;;;4991298;28;20305;-80
2021/10/26 02:44:24;;;;;;;18.40;9.60;;;8.90;99.90;;;;;;4991511;28;20724;-80
2021/10/26 02:46:52;;;;;;;15.93;10.03;;;9.00;99.90;;;;;;4973937;28;20198;-80
2021/10/26 02:49:19;;;;;;;16.63;9.90;;;9.00;99.90;;;;;;4971700;28;20257;-80
2021/10/26 02:51:46;;;;;;;19.57;9.40;;;9.10;99.90;;;;;;4972132;28;20683;-80
2021/10/26 02:54:13;;;;;;;16.87;9.80;;;9.10;99.90;;;;;;4978217;28;20288;-80
2021/10/26 02:56:40;;;;;;;15.23;9.90;;;9.20;99.90;;;;;;4991394;28;20316;-80
2021/10/26 02:59:07;;;;;;;15.63;9.40;;;9.10;99.90;;;;;;4977118;28;20230;-80
2021/10/26 03:01:34;;;;;;;14.47;9.03;;;9.10;99.90;;;;;;4971451;28;20202;-79
2021/10/26 03:04:02;;;;;;;18.20;9.70;;;9.10;99.90;;;;;;4972052;28;20233;-78
2021/10/26 03:06:29;;;;;;;12.37;8.40;;;9.10;99.90;;;;;;4984603;28;20244;-80
2021/10/26 03:08:56;;;;;;;15.43;8.43;;;9.20;99.90;;;;;;4987264;28;20263;-80
2021/10/26 03:11:23;;;;;;;13.23;8.33;;;9.20;99.90;;;;;;4971938;28;20309;-80
2021/10/26 03:13:49;;;;;;;17.17;8.70;;;9.20;99.90;;;;;;4971967;28;20289;-80
2021/10/26 03:16:16;;;;;;;15.97;8.50;;;9.30;99.90;;;;;;4984359;28;20720;-80
2021/10/26 03:18:43;;;;;;;15.17;8.43;;;9.40;99.90;;;;;;4991287;28;20289;-80
2021/10/26 03:21:11;;;;;;;12.57;8.23;;;9.40;99.90;;;;;;4973361;28;20198;-80
2021/10/26 03:23:38;;;;;;;15.00;8.57;;;9.40;99.90;;;;;;4976140;28;20239;-80
2021/10/26 03:26:05;;;;;;;16.00;8.03;;;9.60;99.90;;;;;;4991071;28;20673;-80
2021/10/26 03:28:32;;;;;;;16.13;7.83;;;9.60;99.90;;;;;;4990868;28;20297;-80
2021/10/26 03:31:01;;;;;;;15.33;7.07;;;9.60;99.90;;;;;;4990718;28;20671;-80
2021/10/26 03:33:28;;;;;;;12.30;7.40;;;9.60;99.90;;;;;;4990301;28;20236;-80
2021/10/26 03:35:56;;;;;;;13.87;7.17;;;9.60;99.90;;;;;;4990832;28;20255;-80
2021/10/26 03:38:24;;;;;;;14.67;6.90;;;9.70;99.90;;;;;;4990354;28;20225;-80
2021/10/26 03:40:51;;;;;;;11.07;6.67;;;9.70;99.90;;;;;;4990607;28;20294;-80
2021/10/26 03:43:18;;;;;;;11.70;6.27;;;9.70;99.90;;;;;;4990882;28;20211;-80
2021/10/26 03:45:45;;;;;;;10.77;6.17;;;9.70;99.90;;;;;;4973725;28;20289;-80
2021/10/26 03:48:12;;;;;;;11.83;6.13;;;9.80;99.90;;;;;;4990303;28;20285;-80
2021/10/26 03:50:38;;;;;;;12.43;7.47;;;9.80;99.90;;;;;;4987704;28;20297;-80
2021/10/26 03:53:05;;;;;;;14.90;7.30;;;9.80;99.90;;;;;;4971449;28;20284;-80
2021/10/26 03:55:33;;;;;;;12.03;7.03;;;9.70;99.90;;;;;;4971074;28;20315;-80
2021/10/26 03:58:00;;;;;;;13.00;6.70;;;9.60;99.90;;;;;;4970922;28;20234;-80
2021/10/26 04:00:28;;;;;;;14.67;6.40;;;9.70;99.90;;;;;;4983820;28;20198;-80
2021/10/26 04:02:55;;;;;;;16.43;5.70;;;9.70;99.90;;;;;;4990018;28;20222;-80
2021/10/26 04:05:24;;;;;;;13.30;5.20;;;9.90;99.90;;;;;;4990495;28;20285;-80
2021/10/26 04:07:56;;;;;;;17.57;5.50;;;10.00;99.90;;;;;;4990258;28;20205;-80
2021/10/26 04:10:33;;;;;;;14.57;5.43;;;10.10;99.90;;;;;;4990245;28;20236;-80
2021/10/26 04:13:03;;;;;;;15.23;5.23;;;10.20;99.90;;;;;;4990610;28;20208;-80
2021/10/26 04:15:31;;;;;;;12.13;5.70;;;10.20;99.90;;;;;;4990399;28;20209;-80
2021/10/26 04:17:57;;;;;;;13.93;5.23;;;10.20;99.90;;;;;;4990147;28;20206;-80
2021/10/26 04:20:24;;;;;;;14.43;5.00;;;10.20;99.90;;;;;;4990597;28;20293;-81
2021/10/26 04:22:51;;;;;;;12.13;5.83;;;10.30;99.90;;;;;;4990355;28;20233;-80
2021/10/26 04:25:18;;;;;;;13.53;5.30;;;10.20;99.90;;;;;;4977096;28;20285;-80
2021/10/26 04:27:45;;;;;;;13.93;4.83;;;10.30;99.90;;;;;;4970447;28;20309;-80
2021/10/26 04:30:14;;;;;;;11.77;5.03;;;10.30;99.90;;;;;;4970946;28;20233;-80
2021/10/26 04:32:41;;;;;;;14.70;4.93;;;10.30;99.90;;;;;;4970356;28;20294;-80
2021/10/26 04:35:09;;;;;;;13.20;5.80;;;10.30;99.90;;;;;;4985113;28;20288;-80
2021/10/26 04:37:36;;;;;;;13.90;5.53;;;10.30;99.90;;;;;;4989708;28;20244;-80
2021/10/26 04:40:04;;;;;;;10.03;4.93;;;10.40;99.90;;;;;;4990155;28;20275;-80
2021/10/26 04:42:32;;;;;;;14.80;5.10;;;10.40;99.90;;;;;;4951281;28;20237;-80
2021/10/26 04:44:59;;;;;;;13.23;5.00;;;10.40;99.90;;;;;;4951131;28;20264;-80
2021/10/26 04:47:27;;;;;;;12.33;5.60;;;10.40;99.90;;;;;;4951074;28;20290;-80
2021/10/26 04:49:54;;;;;;;12.87;5.57;;;10.40;99.90;;;;;;4939128;28;20357;-80
2021/10/26 04:52:22;;;;;;;10.70;5.80;;;10.50;99.90;;;;;;4946339;29;20238;-80
2021/10/26 04:54:49;;;;;;;10.73;5.33;;;10.50;99.90;;;;;;4950782;28;20289;-80
2021/10/26 04:57:16;;;;;;;16.30;5.47;;;10.50;99.90;;;;;;4951084;29;20284;-80
2021/10/26 04:59:43;;;;;;;15.17;5.93;;;10.50;99.90;;;;;;4950366;29;20246;-81
2021/10/26 05:02:10;;;;;;;15.20;5.73;;;10.50;99.90;;;;;;4951712;28;20305;-80
2021/10/26 05:04:38;;;;;;;10.93;5.80;;;10.50;99.90;;;;;;4954169;28;20785;-80
2021/10/26 05:07:05;;;;;;;11.77;5.53;;;10.50;99.90;;;;;;4954237;28;20294;-80
2021/10/26 05:09:32;;;;;;;16.10;6.30;;;10.50;99.90;;;;;;4954255;28;20212;-80
2021/10/26 05:11:59;;;;;;;13.73;5.70;;;10.50;99.90;;;;;;4954364;29;20345;-80
2021/10/26 05:14:26;;;;;;;12.30;5.53;;;10.50;99.90;;;;;;4954144;29;20293;-80
2021/10/26 05:16:53;;;;;;;13.20;5.80;;;10.50;99.90;;;;;;4953822;29;20309;-79
2021/10/26 05:19:21;;;;;;;15.97;6.30;;;10.50;99.90;;;;;;4954244;28;20203;-80
2021/10/26 05:21:49;;;;;;;12.07;5.57;;;10.50;99.90;;;;;;4953895;28;20213;-80
2021/10/26 05:24:17;;;;;;;13.23;6.13;;;10.40;99.90;;;;;;4954215;29;20297;-79
2021/10/26 05:26:44;;;;;;;13.73;5.83;;;10.40;99.90;;;;;;4953890;29;20250;-80
2021/10/26 05:29:12;;;;;;;10.73;5.80;;;10.40;99.90;;;;;;4952997;29;20691;-80
2021/10/26 05:31:40;;;;;;;11.47;6.13;;;10.30;99.90;;;;;;4953435;28;20291;-80
2021/10/26 05:34:09;;;;;;;14.07;6.90;;;10.30;99.90;;;;;;4947012;28;20687;-80
2021/10/26 05:36:36;;;;;;;13.20;6.07;;;10.30;99.90;;;;;;4934518;29;20228;-80
2021/10/26 05:39:06;;;;;;;14.93;6.30;;;10.40;99.90;;;;;;4934816;29;20206;-80
2021/10/26 05:41:33;;;;;;;12.47;6.50;;;10.30;99.90;;;;;;4957779;28;20325;-80
2021/10/26 05:44:00;;;;;;;15.60;7.70;;;10.50;99.90;;;;;;4973024;28;20234;-80
2021/10/26 05:46:27;;;;;;;12.90;7.97;;;10.50;99.90;;;;;;4973020;28;20199;-80
2021/10/26 05:48:54;;;;;;;13.07;7.40;;;10.50;99.90;;;;;;4972980;28;20673;-80
2021/10/26 05:51:21;;;;;;;16.60;8.00;;;10.60;99.90;;;;;;4972884;28;20230;-79
2021/10/26 05:53:48;;;;;;;18.57;9.13;;;10.60;99.90;;;;;;4975570;28;20280;-80
2021/10/26 05:56:16;;;;;;;19.13;7.97;;;10.60;99.90;;;;;;4978248;28;20598;-79
2021/10/26 05:58:43;;;;;;;15.67;8.60;;;10.60;99.90;;;;;;4982504;28;20284;-80
2021/10/26 06:01:10;;;;;;;15.10;8.50;;;10.60;99.90;;;;;;4992123;28;20752;-80
2021/10/26 06:03:37;;;;;;;25.10;10.80;;;10.60;99.90;;;;;;4992158;28;20222;-80
2021/10/26 06:06:04;;;;;;;19.93;10.40;;;10.60;99.90;;;;;;4982519;28;20242;-80
2021/10/26 06:08:32;;;;;;;18.70;8.40;;;10.70;99.90;;;;;;4972860;28;20293;-80
2021/10/26 06:11:02;;;;;;;16.93;8.33;;;10.70;99.90;;;;;;4973043;28;20199;-80
2021/10/26 06:13:32;;;;;;;21.20;10.17;;;10.70;99.90;;;;;;4990956;28;20217;-80
2021/10/26 06:15:59;;;;;;;18.93;10.60;;;10.80;99.90;;;;;;4991784;28;20556;-80
2021/10/26 06:18:26;;;;;;;18.33;10.17;;;10.80;99.90;;;;;;4991606;28;20208;-80
2021/10/26 06:20:53;;;;;;;18.13;8.77;;;10.90;99.90;;;;;;4991725;28;20289;-80
2021/10/26 06:23:20;;;;;;;23.00;10.77;;;10.90;99.90;;;;;;4991798;28;20288;-80
2021/10/26 06:25:47;;;;;;;17.43;9.37;;;10.80;99.90;;;;;;4991881;28;20609;-80
2021/10/26 06:28:14;;;;;;;19.27;10.40;;;10.90;99.90;;;;;;4991386;28;20236;-80
2021/10/26 06:30:44;;;;;;;20.17;10.50;;;11.00;99.90;;;;;;4991478;28;20202;-80
2021/10/26 06:33:11;;;;;;;16.67;10.03;;;11.00;99.90;;;;;;4992070;28;20216;-80
2021/10/26 06:35:38;;;;;;;19.57;11.23;;;10.90;99.90;;;;;;4991478;28;20229;-79
2021/10/26 06:38:05;;;;;;;21.70;11.53;;;11.00;99.90;;;;;;4991422;28;20724;-80
2021/10/26 06:40:32;;;;;;;20.20;10.90;;;11.00;99.90;;;;;;4991567;28;20324;-80
2021/10/26 06:42:59;;;;;;;21.53;10.93;;;11.00;99.90;;;;;;4991517;28;20229;-80
2021/10/26 06:45:26;;;;;;;18.63;10.30;;;11.00;99.90;;;;;;4991643;28;20300;-80
2021/10/26 06:47:54;;;;;;;15.07;8.73;;;11.10;99.90;;;;;;4991774;28;20225;-80
2021/10/26 06:50:21;;;;;;;15.53;8.80;;;11.00;99.90;;;;;;4991146;28;20238;-80
2021/10/26 06:52:48;;;;;;;17.70;10.93;;;11.10;99.90;;;;;;4987471;28;20206;-80
2021/10/26 06:55:18;;;;;;;20.77;11.43;;;11.00;99.90;;;;;;4971645;28;20289;-80
2021/10/26 06:57:46;;;;;;;18.40;11.03;;;11.10;99.90;;;;;;4971550;28;20230;-80
2021/10/26 07:00:15;;;;;;;17.70;10.57;;;11.00;99.90;;;;;;4972111;28;20206;-80
2021/10/26 07:02:49;;;;;;;17.53;10.30;;;11.10;99.90;;;;;;4954581;28;20258;-80
2021/10/26 07:05:18;;;;;;;14.43;9.80;;;11.10;99.90;;;;;;4974652;28;20291;-80
2021/10/26 07:07:45;;;;;;;18.97;10.63;;;11.10;99.90;;;;;;4990759;28;20225;-80
2021/10/26 07:10:13;;;;;;;20.53;11.73;;;11.10;99.90;;;;;;4981826;28;20238;-80
2021/10/26 07:12:40;;;;;;;23.53;10.93;;;11.20;99.90;;;;;;4971433;28;20202;-80
2021/10/26 07:15:08;;;;;;;16.60;10.43;;;11.20;99.90;;;;;;4971646;28;20230;-80
2021/10/26 07:17:36;;;;;;;17.67;10.37;;;11.10;99.90;;;;;;4973878;28;20284;-80
2021/10/26 07:20:04;;;;;;;17.67;11.00;;;11.20;99.90;;;;;;4991170;28;20230;-80
2021/10/26 07:22:32;;;;;;;19.43;9.90;;;11.20;99.90;;;;;;4982460;28;20247;-80
2021/10/26 07:25:04;;;;;;;18.00;9.13;;;11.30;99.90;;;;;;4990096;28;20629;-80
2021/10/26 07:27:32;;;;;;;16.83;8.47;;;11.30;99.90;;;;;;4990747;28;20271;-80
2021/10/26 07:29:59;;;;;;;15.30;7.90;;;11.40;99.90;;;;;;4990858;28;20647;-80
2021/10/26 07:32:26;;;;;;;15.67;7.57;;;11.40;99.90;;;;;;4991304;28;20251;-80
2021/10/26 07:34:53;;;;;;;13.60;7.70;;;11.40;99.90;;;;;;4973893;28;20284;-80
2021/10/26 07:37:23;;;;;;;10.70;7.17;;;11.40;99.90;;;;;;4990998;28;20257;-80
2021/10/26 07:39:52;;;;;;;11.77;7.20;;;11.30;99.90;;;;;;4990472;28;20202;-80
2021/10/26 07:42:20;;;;;;;12.87;7.20;;;11.30;99.90;;;;;;4990434;28;20280;-80
2021/10/26 07:44:49;;;;;;;16.60;7.60;;;11.30;99.90;;;;;;4990685;28;20237;-80
2021/10/26 07:47:19;;;;;;;14.17;7.43;;;11.30;99.90;;;;;;4990048;28;20311;-80
2021/10/26 07:49:48;;;;;;;17.17;9.30;;;11.40;99.90;;;;;;4990828;28;20257;-80
2021/10/26 07:52:16;;;;;;;13.03;8.23;;;11.40;99.90;;;;;;4990929;28;20284;-80
2021/10/26 07:54:47;;;;;;;16.37;7.30;;;11.40;99.90;;;;;;4990233;28;20202;-80
2021/10/26 07:57:15;;;;;;;19.10;7.10;;;11.40;99.90;;;;;;4990914;28;20229;-80
2021/10/26 07:59:43;;;;;;;13.83;7.30;;;11.40;99.90;;;;;;4990448;28;20564;-80
2021/10/26 08:02:10;;;;;;;13.83;7.23;;;11.40;99.90;;;;;;4990669;28;20260;-80
2021/10/26 08:04:37;;;;;;;20.73;7.90;;;11.50;99.90;;;;;;4990295;28;20773;-80
2021/10/26 08:07:05;;;;;;;23.63;7.47;;;11.50;99.90;;;;;;4990739;28;20233;-80
2021/10/26 08:09:32;;;;;;;26.90;7.13;;;11.50;99.90;;;;;;4990312;28;20232;-80
2021/10/26 08:11:59;;;;;;;25.03;6.90;;;11.50;99.90;;;;;;4989843;28;20289;-80
2021/10/26 08:14:28;;;;;;;28.00;7.67;;;11.60;99.90;;;;;;4989826;28;20194;-79
2021/10/26 08:16:55;;;;;;;22.40;7.37;;;11.60;99.90;;;;;;4990507;28;20335;-80
2021/10/26 08:19:23;;;;;;;16.67;7.03;;;11.70;99.90;;;;;;4990163;28;20245;-80
2021/10/26 08:21:50;;;;;;;26.27;7.37;;;11.90;99.90;;;;;;4989813;28;20280;-80
2021/10/26 08:24:19;;;;;;;16.30;6.83;;;12.00;99.90;;;;;;4974481;28;20210;-80
2021/10/26 08:26:55;;;;;;;11.27;7.43;;;12.00;99.90;;;;;;4970913;28;20257;-80
2021/10/26 08:29:32;;;;;;;47.07;9.20;;;12.10;99.90;;;;;;4970609;28;20678;-80
2021/10/26 08:32:13;;;;;;;13.80;7.87;;;12.50;99.90;;;;;;4982942;28;20280;-80
2021/10/26 08:34:47;;;;;;;11.83;7.00;;;12.60;99.90;;;;;;4990475;28;20618;-80
2021/10/26 08:37:15;;;;;;;12.47;7.30;;;12.30;99.90;;;;;;4992141;28;20256;-80
2021/10/26 08:39:42;;;;;;;10.37;6.90;;;12.30;99.90;;;;;;4993943;28;20212;-80
2021/10/26 08:42:12;;;;;;;17.87;7.67;;;12.40;99.90;;;;;;4992706;28;20260;-80
2021/10/26 08:44:39;;;;;;;12.90;7.33;;;12.60;99.90;;;;;;4993668;28;20245;-80
2021/10/26 08:47:08;;;;;;;9.77;6.60;;;12.90;99.90;;;;;;4993481;28;20284;-80
2021/10/26 08:49:35;;;;;;;9.60;6.50;;;12.90;99.90;;;;;;4993517;28;20288;-80
2021/10/26 08:52:05;;;;;;;11.17;6.47;;;12.90;99.90;;;;;;4975228;28;20202;-80
2021/10/26 08:54:32;;;;;;;10.97;6.90;;;13.00;99.90;;;;;;4986696;28;20288;-80
2021/10/26 08:57:00;;;;;;;10.73;7.17;;;;;;;;;;4993020;28;20570;-80
2021/10/26 08:59:28;;;;;;;11.40;6.63;;;;;;;;;;4992374;28;20285;-80
2021/10/26 09:01:58;;;;;;;7.83;5.93;;;;;;;;;;4993010;28;20313;-80
2021/10/26 09:04:33;;;;;;;12.30;6.13;;;;;;;;;;4993490;28;20233;-80
2021/10/26 09:07:05;;;;;;;8.97;5.30;;;;;;;;;;4992618;28;20267;-80
2021/10/26 09:09:37;;;;;;;8.23;5.10;;;;;;;;;;4992939;28;20241;-80
2021/10/26 09:17:58;;;;;;;10.67;7.00;;;;;;;;;;4974771;28;20225;-79
2021/10/26 09:20:32;;;;;;;12.80;6.63;;;;;;;;;;4978184;28;20214;-80
2021/10/26 09:23:05;;;;;;;10.23;5.50;;;;;;;;;;4992286;28;20318;-80
2021/10/26 09:25:39;;;;;;;16.07;5.77;;;;;;;;;;4992979;28;20206;-80
2021/10/26 09:28:15;;;;;;;8.63;5.10;;;;;;;;;;4992634;28;20662;-79
2021/10/26 09:30:49;;;;;;;11.30;6.57;;;;;;;;;;4992677;28;20244;-80
2021/10/26 09:33:34;;;;;;;11.97;6.67;;;;;;;;;;4991901;28;20636;-80
2021/10/26 09:36:27;;;;;;;8.57;5.53;;;;;;;;;;4972744;28;20297;-80
2021/10/26 09:39:14;;;;;;;11.63;6.33;;;;;;;;;;4973127;28;20778;-80
2021/10/26 09:42:04;;;;;;;11.03;6.10;;;;;;;;;;4973045;28;20326;-79
2021/10/26 09:44:40;;;;;;;11.27;6.63;;;;;;;;;;4972569;28;20635;-80
2021/10/26 09:47:18;;;;;;;12.43;7.40;;;;;;;;;;4981028;28;20782;-80
2021/10/26 09:49:59;;;;;;;13.87;6.87;;;;;;;;;;4991905;28;20247;-80
2021/10/26 09:52:39;;;;;;;12.10;6.73;;;;;;;;;;4992386;28;20297;-79
2021/10/26 09:55:15;;;;;;;15.77;6.73;;;;;;;;;;4985827;28;20206;-80
2021/10/26 09:57:49;;;;;;;12.90;6.83;;;;;;;;;;4986238;28;20225;-80
2021/10/26 10:00:26;;;;;;;9.10;5.67;;;;;;;;;;4992367;28;20354;-80
2021/10/26 10:03:02;;;;;;;11.50;5.43;;;;;;;;;;4991963;28;20221;-80
2021/10/26 10:05:32;;;;;;;8.90;4.53;;;;;;;;;;4986775;28;20237;-80
2021/10/26 10:08:02;;;;;;;15.03;4.73;;;;;;;;;;4991237;28;20560;-80
2021/10/26 10:10:43;;;;;;;11.03;5.10;;;;;;;;;;4992318;28;20280;-80
2021/10/26 10:13:13;;;;;;;8.87;4.57;;;;;;;;;;4991422;28;20242;-80
2021/10/26 10:15:45;;;;;;;8.13;4.43;;;;;;;;;;4991956;28;20677;-80
2021/10/26 10:18:14;;;;;;;7.43;3.60;;;;;;;;;;4991987;28;20700;-80
2021/10/26 10:20:44;;;;;;;8.03;3.90;;;;;;;;;;4990067;28;20313;-80
2021/10/26 10:23:14;;;;;;;6.10;4.00;;;;;;;;;;4992034;28;20776;-80
2021/10/26 10:25:47;;;;;;;8.95;4.45;;;;;;;;;;4992155;28;20233;-80
2021/10/26 10:28:15;;;;;;;10.35;3.92;;;;;;;;;;4991805;28;20208;-80
2021/10/26 10:30:42;;;;;;;8.15;4.60;;;;;;;;;;4991823;28;20194;-80
2021/10/26 10:33:09;;;;;;;8.77;3.95;;;;;;;;;;4990829;28;20618;-80
2021/10/26 10:35:37;;;;;;;7.30;3.60;;;;;;;;;;4991614;28;20297;-80
2021/10/26 10:38:06;;;;;;;9.98;3.60;;;;;;;;;;4991655;28;20240;-80
2021/10/26 10:40:33;;;;;;;7.13;3.80;;;;;;;;;;4991476;28;20225;-79
2021/10/26 10:43:02;;;;;;;7.60;3.22;;;;;;;;;;4991148;28;20668;-80
2021/10/26 10:45:32;;;;;;;5.70;4.03;;;;;;;;;;4991320;28;20708;-80
2021/10/26 10:48:00;;;;;;;7.72;4.13;;;;;;;;;;4991114;28;20524;-80
2021/10/26 10:50:32;;;;;;;10.80;3.80;;;;;;;;;;4990265;28;20255;-80
2021/10/26 10:53:11;;;;;;;6.32;3.13;;;;;;;;;;4991780;28;20288;-79
2021/10/26 10:55:38;;;;;;;7.65;3.33;;;;;;;;;;4971891;28;20210;-80
2021/10/26 10:58:27;;;;;;;10.07;3.95;;;;;;;;;;4972296;28;20241;-80
2021/10/26 11:00:56;;;;;;;8.13;3.40;;;;;;;;;;4970641;28;20258;-80
2021/10/26 11:03:30;;;;;;;4.95;2.70;;;;;;;;;;4971553;28;20226;-80
2021/10/26 11:05:58;;;;;;;7.47;3.67;;;;;;;;;;4979303;28;20211;-80
2021/10/26 11:08:44;;;;;;;7.32;3.85;;;;;;;;;;4971976;28;20271;-80
2021/10/26 11:11:11;;;;;;;5.90;3.40;;;;;;;;;;4973842;28;20633;-80
2021/10/26 11:13:40;;;;;;;6.38;3.20;;;;;;;;;;4990938;28;20561;-80
2021/10/26 11:16:09;;;;;;;6.70;3.00;;;;;;;;;;4988116;28;20206;-80
2021/10/26 11:18:37;;;;;;;9.07;3.35;;;;;;;;;;4971379;28;20210;-80
2021/10/26 11:21:05;;;;;;;6.43;3.08;;;;;;;;;;4971540;28;20262;-80
2021/10/26 11:23:40;;;;;;;10.52;3.20;;;;;;;;;;4971475;28;20202;-80
2021/10/26 11:26:09;;;;;;;7.22;3.13;;;;;;;;;;4971630;28;20396;-80
2021/10/26 11:28:37;;;;;;;8.98;3.35;;;;;;;;;;4980327;28;20205;-80
2021/10/26 11:31:15;;;;;;;5.57;3.30;;;;;;;;;;4990986;28;20281;-80
2021/10/26 11:33:52;;;;;;;7.80;3.78;;;;;;;;;;4990726;28;20661;-80
2021/10/26 11:36:19;;;;;;;9.55;3.55;;;;;;;;;;4990865;28;20640;-80
2021/10/26 11:38:48;;;;;;;9.27;3.08;;;;;;;;;;4990586;28;20288;-80
2021/10/26 11:41:16;;;;;;;6.95;2.78;;;;;;;;;;4986158;28;20236;-80
2021/10/26 11:43:45;;;;;;;10.43;3.20;;;;;;;;;;4990657;28;20258;-80
2021/10/26 11:46:15;;;;;;;6.93;2.42;;;;;;;;;;4989914;28;20230;-80
2021/10/26 11:48:46;;;;;;;5.10;2.40;;;;;;;;;;4990874;28;20241;-80
2021/10/26 11:51:20;;;;;;;6.50;2.40;;;;;;;;;;4990200;28;20628;-79
2021/10/26 11:53:47;;;;;;;9.20;2.20;;;;;;;;;;4990369;28;20240;-80
2021/10/26 11:56:25;;;;;;;6.75;2.63;;;;;;;;;;4990611;28;20248;-80
2021/10/26 11:59:19;;;;;;;6.78;2.80;;;;;;;;;;4990842;28;20237;-80
2021/10/26 12:01:52;;;;;;;7.30;2.42;;;;;;;;;;5000468;28;20230;-80
2021/10/26 12:04:21;;;;;;;6.72;2.20;;;;;;;;;;4991096;28;20206;-80
2021/10/26 12:06:50;;;;;;;6.97;2.28;;;;;;;;;;4975642;28;20276;-80
2021/10/26 12:09:19;;;;;;;5.85;2.20;;;;;;;;;;4971569;28;20749;-80
2021/10/26 12:11:48;;;;;;;7.45;2.55;;;;;;;;;;4984632;28;20233;-80
2021/10/26 12:14:17;;;;;;;5.38;2.30;;;;;;;;;;5010452;28;20284;-80
2021/10/26 12:16:59;;;;;;;4.68;2.13;;;;;;;;;;5010201;28;20209;-80
2021/10/26 12:19:31;;;;;;;5.45;2.00;;;;;;;;;;4998653;28;20707;-80
2021/10/26 12:21:58;;;;;;;6.90;2.20;;;;;;;;;;4990842;28;20312;-80
2021/10/26 12:24:26;;;;;;;6.55;1.85;;;;;;;;;;4993693;28;20297;-79
2021/10/26 12:27:00;;;;;;;7.03;1.85;;;;;;;;;;4990695;28;20724;-80
2021/10/26 12:29:30;;;;;;;8.13;1.48;;;;;;;;;;4990284;28;20209;-80
2021/10/26 12:31:57;;;;;;;6.68;1.52;;;;;;;;;;4990568;28;20280;-79
2021/10/26 12:34:25;;;;;;;6.50;1.50;;;;;;;;;;4990501;28;20292;-80
2021/10/26 12:36:53;;;;;;;3.45;1.30;;;;;;;;;;4990467;28;20355;-80
2021/10/26 12:39:25;;;;;;;3.60;1.77;;;;;;;;;;4989441;28;20233;-80
2021/10/26 12:41:52;;;;;;;7.68;1.88;;;;;;;;;;4989436;28;20672;-80
2021/10/26 12:44:23;;;;;;;3.90;1.58;;;;;;;;;;4980653;28;20205;-80
2021/10/26 12:47:03;;;;;;;7.90;1.67;;;;;;;;;;4970562;28;20310;-80
2021/10/26 12:49:36;;;;;;;6.65;1.40;;;;;;;;;;4970294;28;20670;-80
2021/10/26 12:52:12;;;;;;;4.10;1.45;;;;;;;;;;4987651;28;20197;-80
2021/10/26 12:54:39;;;;;;;5.00;1.40;;;;;;;;;;4990123;28;20201;-80
2021/10/26 12:57:07;;;;;;;5.15;1.77;;;;;;;;;;4989655;28;20904;-80
2021/10/26 12:59:37;;;;;;;4.60;1.35;;;;;;;;;;4984732;28;20282;-80
2021/10/26 13:02:06;;;;;;;4.55;1.23;;;;;;;;;;4970046;28;20234;-80
2021/10/26 13:04:36;;;;;;;4.72;1.40;;;;;;;;;;4983936;28;20202;-80
2021/10/26 13:07:05;;;;;;;7.45;1.45;;;;;;;;;;4972622;28;20242;-80
2021/10/26 13:09:35;;;;;;;4.97;1.25;;;;;;;;;;4969979;28;20329;-79
2021/10/26 13:12:04;;;;;;;5.80;1.10;;;;;;;;;;4970522;28;20294;-80
2021/10/26 13:14:43;;;;;;;6.57;1.30;;;;;;;;;;4970104;28;20202;-80
2021/10/26 13:17:23;;;;;;;4.28;1.40;;;;;;;;;;4970136;28;20221;-80
2021/10/26 13:19:51;;;;;;;4.95;1.30;;;;;;;;;;4970229;28;20202;-80
2021/10/26 13:22:18;;;;;;;7.55;1.40;;;;;;;;;;4970235;28;20330;-80
2021/10/26 13:24:47;;;;;;;4.72;1.30;;;;;;;;;;4973272;28;20289;-80
2021/10/26 13:27:18;;;;;;;5.63;1.73;;;;;;;;;;4973360;28;20199;-80
2021/10/26 13:29:47;;;;;;;5.05;1.25;;;;;;;;;;4977066;28;20289;-80
2021/10/26 13:32:18;;;;;;;4.85;1.48;;;;;;;;;;4992853;28;20288;-80